createdAt,value
2023-01-21T00:02:27.419Z,100.00
2023-01-21T00:07:28.207Z,100.00
2023-01-21T00:12:29.397Z,100.00
2023-01-21T00:17:34.531Z,100.00
2023-01-21T00:22:35.458Z,100.00
2023-01-21T00:27:36.803Z,100.00
2023-01-21T00:32:37.587Z,100.00
2023-01-21T00:37:38.389Z,100.00
2023-01-21T00:42:39.141Z,100.00
2023-01-21T00:47:39.902Z,100.00
2023-01-21T00:52:40.722Z,100.00
2023-01-21T00:57:41.561Z,100.00
2023-01-21T01:02:42.473Z,100.00
2023-01-21T01:07:45.268Z,100.00
2023-01-21T01:12:45.994Z,100.00
2023-01-21T01:17:46.752Z,100.00
2023-01-21T01:22:47.663Z,100.00
2023-01-21T01:27:48.695Z,100.00
2023-01-21T01:32:49.444Z,100.00
2023-01-21T01:37:50.318Z,100.00
2023-01-21T01:42:51.045Z,100.00
2023-01-21T01:47:59.630Z,100.00
2023-01-21T01:53:01.315Z,100.00
2023-01-21T01:58:05.950Z,100.00
2023-01-21T02:03:25.491Z,100.00
2023-01-21T02:08:27.421Z,100.00
2023-01-21T02:13:30.708Z,100.00
2023-01-21T02:18:46.146Z,100.00
2023-01-21T02:24:27.085Z,100.00
2023-01-21T02:29:57.308Z,100.00
2023-01-21T02:35:08.306Z,100.00
2023-01-21T02:40:52.531Z,100.00
2023-01-21T02:46:02.535Z,100.00
2023-01-21T02:51:04.423Z,100.00
2023-01-21T02:56:08.845Z,100.00
2023-01-21T03:01:35.690Z,100.00
2023-01-21T03:09:43.971Z,100.00
2023-01-21T03:17:36.167Z,100.00
2023-01-21T03:22:38.775Z,100.00
2023-01-21T03:27:43.847Z,100.00
2023-01-21T03:32:49.323Z,100.00
2023-01-21T03:44:38.630Z,100.00
2023-01-21T03:50:45.262Z,100.00
2023-01-21T03:55:49.228Z,100.00
2023-01-21T04:00:50.164Z,100.00
2023-01-21T04:05:50.993Z,100.00
2023-01-21T04:10:51.730Z,100.00
2023-01-21T04:15:52.467Z,100.00
2023-01-21T04:20:53.237Z,100.00
2023-01-21T04:25:54.012Z,100.00
2023-01-21T04:30:54.901Z,100.00
2023-01-21T04:36:00.172Z,100.00
2023-01-21T04:41:01.242Z,100.00
2023-01-21T04:46:02.089Z,100.00
2023-01-21T04:51:03.038Z,100.00
2023-01-21T04:56:04.313Z,100.00
2023-01-21T05:01:05.468Z,100.00
2023-01-21T05:06:06.700Z,100.00
2023-01-21T05:11:08.798Z,100.00
2023-01-21T05:16:10.078Z,100.00
2023-01-21T05:21:11.186Z,100.00
2023-01-21T05:26:11.915Z,100.00
2023-01-21T05:31:13.284Z,100.00
2023-01-21T05:36:14.088Z,100.00
2023-01-21T05:41:14.953Z,100.00
2023-01-21T05:46:15.708Z,100.00
2023-01-21T05:51:16.701Z,100.00
2023-01-21T05:56:17.506Z,100.00
2023-01-21T06:01:18.343Z,100.00
2023-01-21T06:06:21.194Z,100.00
2023-01-21T06:11:22.386Z,100.00
2023-01-21T06:16:23.216Z,100.00
2023-01-21T06:21:24.103Z,100.00
2023-01-21T06:26:27.064Z,100.00
2023-01-21T06:31:28.427Z,100.00
2023-01-21T06:36:29.217Z,100.00
2023-01-21T06:41:30.155Z,100.00
2023-01-21T06:46:31.313Z,100.00
2023-01-21T06:51:32.112Z,100.00
2023-01-21T06:56:32.850Z,100.00
2023-01-21T07:01:34.008Z,100.00
2023-01-21T07:06:35.025Z,100.00
2023-01-21T07:11:35.873Z,100.00
2023-01-21T07:16:36.998Z,100.00
2023-01-21T07:21:40.544Z,100.00
2023-01-21T07:26:42.438Z,100.00
2023-01-21T07:31:43.454Z,100.00
2023-01-21T07:36:44.264Z,100.00
2023-01-21T07:41:45.666Z,100.00
2023-01-21T07:46:46.458Z,100.00
2023-01-21T07:51:47.627Z,100.00
2023-01-21T07:56:48.370Z,100.00
2023-01-21T08:01:49.445Z,100.00
2023-01-21T08:06:56.023Z,100.00
2023-01-21T08:11:56.887Z,100.00
2023-01-21T08:16:58.020Z,100.00
2023-01-21T08:21:58.767Z,100.00
2023-01-21T08:27:00.251Z,100.00
2023-01-21T08:32:01.299Z,100.00
2023-01-21T08:37:02.073Z,100.00
2023-01-21T08:42:02.926Z,100.00
2023-01-21T08:47:03.749Z,100.00
2023-01-21T08:52:04.472Z,100.00
2023-01-21T08:57:05.234Z,100.00
2023-01-21T09:02:07.736Z,100.00
2023-01-21T09:07:08.600Z,100.00
2023-01-21T09:12:09.415Z,100.00
2023-01-21T09:17:10.256Z,100.00
2023-01-21T09:22:11.357Z,100.00
2023-01-21T09:27:12.161Z,100.00
2023-01-21T09:32:13.081Z,100.00
2023-01-21T09:37:13.859Z,100.00
2023-01-21T09:42:21.179Z,100.00
2023-01-21T09:47:36.784Z,100.00
2023-01-21T09:52:43.749Z,98.66
2023-01-21T09:58:22.639Z,100.00
2023-01-21T10:03:32.248Z,97.83
2023-01-21T10:09:01.108Z,98.06
2023-01-21T10:17:43.129Z,96.35
2023-01-21T10:22:52.365Z,93.89
2023-01-21T10:27:56.876Z,94.01
2023-01-21T10:32:58.334Z,91.57
2023-01-21T10:38:13.536Z,94.38
2023-01-21T10:43:29.653Z,93.55
2023-01-21T10:48:44.323Z,94.27
2023-01-21T10:53:59.852Z,92.26
2023-01-21T10:59:16.950Z,90.52
2023-01-21T11:04:20.884Z,89.33
2023-01-21T11:09:24.872Z,91.15
2023-01-21T11:14:26.628Z,89.54
2023-01-21T11:19:30.223Z,92.93
2023-01-21T11:24:42.778Z,87.87
2023-01-21T11:29:43.732Z,88.45
2023-01-21T11:34:50.594Z,95.21
2023-01-21T11:40:21.168Z,91.25
2023-01-21T11:45:28.863Z,90.35
2023-01-21T11:50:37.060Z,88.69
2023-01-21T11:55:40.829Z,84.84
2023-01-21T12:00:45.563Z,88.64
2023-01-21T12:05:52.227Z,93.77
2023-01-21T12:10:55.736Z,93.14
2023-01-21T12:16:53.983Z,94.84
2023-01-21T12:26:33.518Z,96.39
2023-01-21T12:31:44.574Z,100.00
2023-01-21T12:36:53.394Z,99.35
2023-01-21T12:42:12.132Z,99.13
2023-01-21T12:47:22.674Z,100.00
2023-01-21T12:52:47.634Z,100.00
2023-01-21T12:58:04.466Z,100.00
2023-01-21T13:03:27.105Z,100.00
2023-01-21T13:08:54.544Z,100.00
2023-01-21T13:14:24.482Z,100.00
2023-01-21T13:19:25.544Z,100.00
2023-01-21T13:25:50.470Z,100.00
2023-01-21T13:32:30.827Z,100.00
2023-01-21T13:37:59.878Z,100.00
2023-01-21T13:43:29.247Z,100.00
2023-01-21T13:50:16.734Z,100.00
2023-01-21T13:55:37.110Z,100.00
2023-01-21T14:00:52.267Z,100.00
2023-01-21T14:09:09.046Z,100.00
2023-01-21T14:15:33.688Z,100.00
2023-01-21T14:20:52.762Z,100.00
2023-01-21T14:28:04.385Z,100.00
2023-01-21T14:33:26.959Z,100.00
2023-01-21T14:40:34.948Z,100.00
2023-01-21T14:45:56.465Z,100.00
2023-01-21T14:51:12.379Z,100.00
2023-01-21T14:56:25.392Z,100.00
2023-01-21T15:01:49.208Z,100.00
2023-01-21T15:06:53.666Z,100.00
2023-01-21T15:12:14.852Z,100.00
2023-01-21T15:18:29.083Z,100.00
2023-01-21T15:23:39.185Z,100.00
2023-01-21T15:28:57.328Z,100.00
2023-01-21T15:34:01.177Z,100.00
2023-01-21T15:39:12.022Z,100.00
2023-01-21T15:44:29.676Z,100.00
2023-01-21T15:49:49.337Z,100.00
2023-01-21T16:01:39.422Z,100.00
2023-01-21T16:07:01.207Z,100.00
2023-01-21T16:12:35.949Z,100.00
2023-01-21T16:18:00.781Z,100.00
2023-01-21T16:23:06.594Z,100.00
2023-01-21T16:28:07.321Z,100.00
2023-01-21T16:33:13.326Z,100.00
2023-01-21T16:38:16.735Z,100.00
2023-01-21T16:43:27.268Z,100.00
2023-01-21T16:48:31.052Z,100.00
2023-01-21T16:53:31.917Z,100.00
2023-01-21T16:58:34.007Z,100.00
2023-01-21T17:03:35.600Z,100.00
2023-01-21T17:08:37.673Z,100.00
2023-01-21T17:13:42.315Z,100.00
2023-01-21T17:18:51.966Z,100.00
2023-01-21T17:23:56.315Z,100.00
2023-01-21T17:29:07.495Z,100.00
2023-01-21T17:34:21.120Z,100.00
2023-01-21T17:40:27.346Z,100.00
2023-01-21T17:45:35.767Z,100.00
2023-01-21T17:50:36.580Z,100.00
2023-01-21T17:55:39.613Z,100.00
2023-01-21T18:00:43.156Z,100.00
2023-01-21T18:05:43.917Z,100.00
2023-01-21T18:10:45.575Z,100.00
2023-01-21T18:15:53.417Z,100.00
2023-01-21T18:20:54.837Z,100.00
2023-01-21T18:25:56.502Z,100.00
2023-01-21T18:30:58.719Z,100.00
2023-01-21T18:35:59.794Z,100.00
2023-01-21T18:41:00.876Z,100.00
2023-01-21T18:46:01.736Z,100.00
2023-01-21T18:51:02.736Z,100.00
2023-01-21T18:56:06.970Z,100.00
2023-01-21T19:01:21.984Z,100.00
2023-01-21T19:06:25.013Z,100.00
2023-01-21T19:11:25.828Z,100.00
2023-01-21T19:16:26.743Z,100.00
2023-01-21T19:21:27.860Z,100.00
2023-01-21T19:26:29.088Z,100.00
2023-01-21T19:31:34.334Z,100.00
2023-01-21T19:36:35.251Z,100.00
2023-01-21T19:41:36.074Z,100.00
2023-01-21T19:46:37.117Z,100.00
2023-01-21T19:51:37.926Z,100.00
2023-01-21T19:56:38.815Z,100.00
2023-01-21T20:01:39.623Z,100.00
2023-01-21T20:06:41.656Z,100.00
2023-01-21T20:11:43.035Z,100.00
2023-01-21T20:16:49.485Z,100.00
2023-01-21T20:22:01.338Z,100.00
2023-01-21T20:27:05.851Z,100.00
2023-01-21T20:32:09.838Z,100.00
2023-01-21T20:37:14.369Z,100.00
2023-01-21T20:42:15.109Z,100.00
2023-01-21T20:47:23.057Z,100.00
2023-01-21T20:52:33.357Z,100.00
2023-01-21T20:57:34.191Z,100.00
2023-01-21T21:02:34.963Z,100.00
2023-01-21T21:07:35.761Z,100.00
2023-01-21T21:12:37.083Z,100.00
2023-01-21T21:17:37.873Z,100.00
2023-01-21T21:22:38.642Z,100.00
2023-01-21T21:27:39.584Z,100.00
2023-01-21T21:32:40.359Z,100.00
2023-01-21T21:37:41.094Z,100.00
2023-01-21T21:43:00.315Z,100.00
2023-01-21T21:48:19.931Z,100.00
2023-01-21T21:53:20.752Z,100.00
2023-01-21T21:58:21.715Z,100.00
2023-01-21T22:03:22.442Z,100.00
2023-01-21T22:08:28.411Z,100.00
2023-01-21T22:13:31.418Z,100.00
2023-01-21T22:18:33.397Z,100.00
2023-01-21T22:23:36.295Z,100.00
2023-01-21T22:28:37.181Z,100.00
2023-01-21T22:33:38.453Z,100.00
2023-01-21T22:38:40.907Z,100.00
2023-01-21T22:43:44.423Z,100.00
2023-01-21T22:48:46.042Z,100.00
2023-01-21T22:53:47.293Z,100.00
2023-01-21T22:58:48.148Z,100.00
2023-01-21T23:03:49.300Z,100.00
2023-01-21T23:08:50.694Z,100.00
2023-01-21T23:13:54.210Z,100.00
2023-01-21T23:18:55.109Z,100.00
2023-01-21T23:23:55.914Z,100.00
2023-01-21T23:28:57.502Z,100.00
2023-01-21T23:33:58.461Z,100.00
2023-01-21T23:38:59.242Z,100.00
2023-01-21T23:44:01.372Z,100.00
2023-01-21T23:49:02.204Z,100.00
2023-01-21T23:54:03.058Z,100.00
2023-01-21T23:59:04.931Z,100.00
